createdAt,value
2022-11-29T00:00:15.361Z,58.00
2022-11-29T00:03:02.949Z,54.80
2022-11-29T00:05:30.418Z,63.00
2022-11-29T00:07:57.764Z,101.90
2022-11-29T00:10:25.100Z,100.80
2022-11-29T00:12:52.631Z,78.70
2022-11-29T00:15:20.061Z,73.90
2022-11-29T00:17:47.716Z,64.40
2022-11-29T00:20:15.161Z,68.90
2022-11-29T00:22:42.532Z,65.10
2022-11-29T00:25:09.930Z,72.70
2022-11-29T00:27:37.363Z,100.50
2022-11-29T00:30:04.982Z,131.20
2022-11-29T00:32:32.445Z,94.80
2022-11-29T00:35:01.266Z,73.30
2022-11-29T00:37:30.420Z,71.90
2022-11-29T00:39:57.786Z,64.90
2022-11-29T00:42:25.157Z,72.10
2022-11-29T00:44:52.894Z,69.70
2022-11-29T00:47:20.264Z,64.90
2022-11-29T00:49:47.817Z,114.40
2022-11-29T00:52:15.491Z,133.90
2022-11-29T00:54:43.265Z,96.20
2022-11-29T00:57:10.859Z,70.00
2022-11-29T00:59:38.229Z,77.10
2022-11-29T01:02:05.671Z,80.60
2022-11-29T01:04:33.172Z,84.30
2022-11-29T01:07:00.571Z,79.20
2022-11-29T01:09:27.928Z,106.50
2022-11-29T01:11:55.528Z,123.10
2022-11-29T01:14:22.868Z,93.00
2022-11-29T01:16:50.475Z,73.10
2022-11-29T01:19:17.883Z,74.40
2022-11-29T01:21:45.576Z,65.40
2022-11-29T01:24:13.122Z,70.50
2022-11-29T01:29:43.639Z,135.80
2022-11-29T01:32:11.025Z,125.60
2022-11-29T01:34:38.410Z,97.80
2022-11-29T01:37:06.077Z,67.60
2022-11-29T01:39:33.773Z,72.00
2022-11-29T01:42:01.342Z,69.80
2022-11-29T01:44:28.917Z,65.60
2022-11-29T01:46:56.366Z,65.10
2022-11-29T01:49:23.806Z,55.60
2022-11-29T01:51:51.276Z,109.20
2022-11-29T01:54:18.716Z,111.90
2022-11-29T01:56:49.218Z,88.50
2022-11-29T01:59:19.367Z,68.10
2022-11-29T02:01:47.182Z,70.00
2022-11-29T02:04:14.598Z,64.40
2022-11-29T02:06:42.119Z,57.00
2022-11-29T02:09:09.467Z,55.00
2022-11-29T02:11:36.808Z,48.10
2022-11-29T02:14:04.350Z,51.00
2022-11-29T02:16:31.808Z,103.10
2022-11-29T02:18:59.284Z,89.10
2022-11-29T02:21:26.729Z,75.00
2022-11-29T02:23:54.253Z,52.50
2022-11-29T02:26:21.737Z,59.10
2022-11-29T02:28:49.175Z,57.30
2022-11-29T02:31:16.591Z,59.10
2022-11-29T02:33:43.961Z,57.50
2022-11-29T02:36:11.333Z,78.90
2022-11-29T02:38:38.682Z,109.30
2022-11-29T02:41:06.017Z,93.20
2022-11-29T02:43:33.394Z,61.00
2022-11-29T02:46:00.837Z,55.80
2022-11-29T02:48:28.465Z,57.40
2022-11-29T02:50:55.868Z,47.60
2022-11-29T02:53:23.250Z,58.30
2022-11-29T02:55:50.593Z,62.70
2022-11-29T02:58:18.192Z,64.10
2022-11-29T03:00:45.826Z,85.50
2022-11-29T03:03:13.320Z,81.40
2022-11-29T03:05:40.864Z,84.40
2022-11-29T03:08:08.498Z,62.90
2022-11-29T03:10:35.874Z,65.80
2022-11-29T03:13:03.407Z,57.90
2022-11-29T03:15:31.134Z,53.30
2022-11-29T03:17:58.749Z,58.80
2022-11-29T03:20:26.479Z,51.10
2022-11-29T03:22:54.016Z,63.10
2022-11-29T03:25:21.844Z,99.70
2022-11-29T03:27:49.493Z,99.50
2022-11-29T03:30:16.928Z,54.70
2022-11-29T03:32:44.311Z,62.10
2022-11-29T03:35:12.020Z,65.60
2022-11-29T03:37:39.394Z,67.40
2022-11-29T03:40:06.983Z,56.60
2022-11-29T03:42:34.781Z,54.60
2022-11-29T03:45:02.531Z,53.20
2022-11-29T03:47:30.008Z,110.40
2022-11-29T03:49:57.457Z,118.70
2022-11-29T03:52:24.841Z,76.40
2022-11-29T03:54:52.472Z,64.70
2022-11-29T03:57:20.154Z,65.00
2022-11-29T03:59:47.875Z,67.00
2022-11-29T04:02:15.368Z,59.20
2022-11-29T04:04:43.584Z,57.70
2022-11-29T04:07:11.393Z,56.20
2022-11-29T04:09:38.838Z,85.40
2022-11-29T04:12:06.278Z,104.80
2022-11-29T04:14:34.024Z,66.90
2022-11-29T04:17:01.514Z,53.20
2022-11-29T04:19:28.912Z,52.30
2022-11-29T04:21:56.348Z,48.00
2022-11-29T04:24:23.805Z,48.90
2022-11-29T04:26:51.153Z,44.80
2022-11-29T04:29:18.814Z,39.60
2022-11-29T04:31:46.321Z,87.90
2022-11-29T04:34:13.758Z,100.10
2022-11-29T04:36:41.172Z,82.50
2022-11-29T04:39:08.831Z,50.10
2022-11-29T04:41:36.365Z,47.70
2022-11-29T04:44:04.129Z,50.20
2022-11-29T04:46:31.614Z,50.00
2022-11-29T04:48:59.156Z,52.50
2022-11-29T04:51:26.638Z,47.80
2022-11-29T04:53:54.027Z,110.20
2022-11-29T04:56:21.627Z,119.10
2022-11-29T04:58:49.033Z,103.70
2022-11-29T05:01:16.552Z,62.00
2022-11-29T05:03:46.653Z,70.70
2022-11-29T05:06:14.271Z,57.00
2022-11-29T05:08:41.911Z,59.50
2022-11-29T05:11:09.602Z,57.00
2022-11-29T05:13:37.278Z,46.20
2022-11-29T05:16:04.713Z,52.90
2022-11-29T05:18:32.310Z,97.00
2022-11-29T05:21:00.229Z,102.50
2022-11-29T05:23:27.592Z,84.70
2022-11-29T05:25:55.119Z,62.10
2022-11-29T05:28:22.633Z,57.20
2022-11-29T05:30:50.089Z,55.00
2022-11-29T05:33:17.540Z,51.80
2022-11-29T05:35:44.927Z,51.10
2022-11-29T05:38:12.419Z,94.20
2022-11-29T05:40:39.837Z,83.50
2022-11-29T05:43:07.264Z,76.30
2022-11-29T05:45:34.789Z,48.20
2022-11-29T05:48:02.154Z,55.50
2022-11-29T05:50:29.959Z,49.30
2022-11-29T05:52:57.399Z,51.50
2022-11-29T05:55:24.913Z,53.20
2022-11-29T05:57:52.389Z,49.30
2022-11-29T06:00:20.019Z,92.40
2022-11-29T06:02:47.508Z,99.90
2022-11-29T06:05:15.050Z,83.60
2022-11-29T06:07:42.520Z,50.90
2022-11-29T06:10:10.027Z,56.50
2022-11-29T06:12:37.531Z,57.00
2022-11-29T06:15:04.945Z,55.00
2022-11-29T06:17:38.565Z,61.80
2022-11-29T06:20:06.770Z,35.10
2022-11-29T06:22:34.356Z,56.40
2022-11-29T06:25:01.753Z,95.90
2022-11-29T06:27:29.302Z,104.00
2022-11-29T06:29:56.811Z,91.60
2022-11-29T06:32:24.173Z,107.30
2022-11-29T06:34:51.673Z,101.60
2022-11-29T06:37:19.118Z,61.10
2022-11-29T06:39:46.589Z,52.40
2022-11-29T06:42:14.085Z,76.60
2022-11-29T06:44:41.600Z,95.50
2022-11-29T06:47:08.989Z,67.40
2022-11-29T06:49:36.441Z,47.40
2022-11-29T06:52:03.818Z,47.10
2022-11-29T06:54:31.176Z,44.40
2022-11-29T06:56:58.728Z,36.20
2022-11-29T06:59:26.085Z,44.00
2022-11-29T07:01:53.511Z,69.40
2022-11-29T07:04:21.039Z,76.00
2022-11-29T07:06:48.410Z,50.50
2022-11-29T07:09:16.046Z,43.30
2022-11-29T07:11:43.576Z,40.20
2022-11-29T07:14:11.190Z,45.30
2022-11-29T07:16:38.660Z,39.50
2022-11-29T07:19:06.236Z,45.10
2022-11-29T07:21:33.886Z,101.60
2022-11-29T07:24:01.245Z,121.20
2022-11-29T07:26:28.893Z,192.50
2022-11-29T07:28:56.423Z,108.10
2022-11-29T07:31:23.873Z,33.50
2022-11-29T07:33:51.546Z,42.60
2022-11-29T07:36:19.030Z,42.20
2022-11-29T07:38:46.488Z,38.80
2022-11-29T07:41:13.985Z,56.80
2022-11-29T07:43:41.408Z,52.90
2022-11-29T07:46:08.872Z,49.50
2022-11-29T07:48:36.255Z,46.70
2022-11-29T07:51:03.611Z,46.20
2022-11-29T07:53:30.987Z,38.40
2022-11-29T07:55:58.505Z,33.90
2022-11-29T07:58:26.070Z,35.90
2022-11-29T08:00:53.713Z,38.40
2022-11-29T08:03:21.599Z,53.60
2022-11-29T08:05:49.416Z,53.70
2022-11-29T08:08:17.219Z,54.90
2022-11-29T08:10:44.626Z,41.80
2022-11-29T08:13:12.044Z,39.60
2022-11-29T08:15:39.628Z,38.00
2022-11-29T08:18:07.272Z,35.80
2022-11-29T08:20:34.616Z,37.30
2022-11-29T08:23:02.292Z,27.10
2022-11-29T08:25:29.681Z,45.90
2022-11-29T08:27:57.073Z,50.50
2022-11-29T08:30:24.535Z,47.20
2022-11-29T08:32:52.072Z,38.20
2022-11-29T08:35:19.410Z,37.40
2022-11-29T08:37:46.795Z,35.10
2022-11-29T08:40:14.921Z,45.10
2022-11-29T08:42:42.531Z,63.00
2022-11-29T08:45:09.943Z,47.50
2022-11-29T08:47:37.337Z,49.30
2022-11-29T08:50:04.908Z,40.90
2022-11-29T08:52:32.474Z,43.10
2022-11-29T08:55:03.194Z,38.70
2022-11-29T08:57:39.890Z,46.30
2022-11-29T09:00:08.045Z,44.20
2022-11-29T09:02:35.507Z,44.20
2022-11-29T09:05:03.040Z,40.00
2022-11-29T09:07:30.469Z,40.90
2022-11-29T09:09:58.210Z,41.50
2022-11-29T09:12:25.575Z,36.30
2022-11-29T09:14:53.005Z,38.90
2022-11-29T09:17:20.422Z,53.50
2022-11-29T09:19:47.812Z,50.00
2022-11-29T09:22:15.221Z,43.90
2022-11-29T09:24:42.827Z,44.40
2022-11-29T09:27:10.672Z,40.80
2022-11-29T09:29:38.164Z,34.20
2022-11-29T09:32:05.629Z,31.40
2022-11-29T09:34:33.044Z,40.00
2022-11-29T09:37:00.400Z,35.70
2022-11-29T09:39:27.840Z,35.60
2022-11-29T09:41:55.304Z,35.40
2022-11-29T09:44:22.723Z,36.80
2022-11-29T09:46:52.254Z,34.50
2022-11-29T09:49:23.186Z,34.30
2022-11-29T09:51:50.691Z,37.40
2022-11-29T09:54:18.158Z,40.30
2022-11-29T09:56:45.899Z,41.30
2022-11-29T09:59:13.266Z,32.80
2022-11-29T10:01:40.668Z,45.00
2022-11-29T10:04:08.315Z,22.80
2022-11-29T10:06:35.665Z,34.00
2022-11-29T10:09:03.365Z,28.30
2022-11-29T10:11:30.856Z,37.00
2022-11-29T10:13:58.386Z,20.90
2022-11-29T10:16:26.184Z,34.40
2022-11-29T10:18:53.633Z,19.70
2022-11-29T10:21:21.224Z,38.30
2022-11-29T10:23:48.578Z,35.50
2022-11-29T10:26:15.975Z,23.40
2022-11-29T10:28:43.340Z,28.80
2022-11-29T10:31:10.813Z,31.90
2022-11-29T10:33:38.252Z,27.70
2022-11-29T10:36:06.222Z,26.30
2022-11-29T10:38:34.611Z,24.00
2022-11-29T10:41:02.070Z,25.70
2022-11-29T10:43:29.464Z,22.60
2022-11-29T10:45:56.876Z,24.20
2022-11-29T10:48:24.324Z,26.30
2022-11-29T10:50:51.834Z,26.90
2022-11-29T10:53:19.493Z,23.40
2022-11-29T10:55:46.905Z,24.90
2022-11-29T10:58:14.287Z,26.40
2022-11-29T11:00:41.673Z,25.00
2022-11-29T11:03:09.008Z,21.40
2022-11-29T11:05:36.473Z,26.30
2022-11-29T11:08:03.918Z,30.40
2022-11-29T11:10:31.745Z,25.60
2022-11-29T11:12:59.389Z,26.50
2022-11-29T11:15:26.990Z,28.80
2022-11-29T11:17:54.509Z,24.60
2022-11-29T11:20:21.919Z,28.40
2022-11-29T11:22:49.507Z,21.80
2022-11-29T11:25:16.906Z,26.60
2022-11-29T11:27:44.328Z,22.50
2022-11-29T11:30:11.876Z,32.30
2022-11-29T11:32:39.466Z,26.30
2022-11-29T11:35:06.973Z,25.50
2022-11-29T11:37:34.338Z,26.80
2022-11-29T11:40:01.878Z,24.10
2022-11-29T11:42:29.294Z,31.20
2022-11-29T11:44:56.709Z,27.80
2022-11-29T11:47:24.058Z,31.80
2022-11-29T11:49:51.502Z,29.30
2022-11-29T11:52:18.899Z,27.60
2022-11-29T11:54:46.644Z,23.80
2022-11-29T11:57:14.246Z,27.20
2022-11-29T11:59:41.792Z,25.80
2022-11-29T12:02:09.254Z,25.40
2022-11-29T12:04:36.700Z,27.70
2022-11-29T12:07:04.300Z,29.40
2022-11-29T12:09:32.098Z,27.60
2022-11-29T12:11:59.624Z,24.40
2022-11-29T12:14:27.230Z,22.20
2022-11-29T12:16:54.804Z,24.40
2022-11-29T12:19:22.476Z,17.20
2022-11-29T12:21:49.917Z,16.90
2022-11-29T12:24:17.484Z,18.00
2022-11-29T12:27:00.669Z,20.30
2022-11-29T12:29:28.268Z,19.60
2022-11-29T12:31:55.750Z,18.40
2022-11-29T12:34:23.222Z,21.50
2022-11-29T12:36:50.835Z,16.20
2022-11-29T12:39:18.343Z,17.20
2022-11-29T12:41:50.945Z,20.00
2022-11-29T12:44:21.219Z,17.80
2022-11-29T12:46:48.730Z,14.80
2022-11-29T12:49:16.555Z,20.60
2022-11-29T12:51:44.010Z,14.40
2022-11-29T12:54:11.705Z,16.60
2022-11-29T12:56:39.387Z,17.80
2022-11-29T12:59:06.918Z,19.40
2022-11-29T13:01:34.724Z,18.70
2022-11-29T13:04:02.418Z,19.50
2022-11-29T13:06:29.801Z,22.70
2022-11-29T13:08:57.297Z,23.20
2022-11-29T13:11:24.634Z,30.20
2022-11-29T13:13:52.500Z,23.10
2022-11-29T13:16:23.945Z,20.80
2022-11-29T13:18:54.001Z,20.80
2022-11-29T13:21:21.682Z,22.30
2022-11-29T13:26:36.735Z,20.90
2022-11-29T13:29:04.183Z,18.70
2022-11-29T13:31:32.042Z,23.60
2022-11-29T13:33:59.790Z,20.50
2022-11-29T13:36:27.166Z,24.10
2022-11-29T13:38:54.557Z,19.60
2022-11-29T13:41:21.925Z,19.90
2022-11-29T13:43:49.490Z,23.50
2022-11-29T13:46:17.201Z,21.60
2022-11-29T13:48:44.943Z,19.60
2022-11-29T13:51:12.648Z,23.90
2022-11-29T13:53:43.901Z,23.10
2022-11-29T13:56:14.480Z,25.40
2022-11-29T13:58:41.923Z,25.70
2022-11-29T14:01:09.381Z,24.40
2022-11-29T14:03:36.886Z,25.70
2022-11-29T14:06:04.324Z,22.80
2022-11-29T14:08:48.077Z,26.00
2022-11-29T14:11:19.195Z,26.20
2022-11-29T14:13:47.245Z,25.70
2022-11-29T14:16:14.923Z,24.90
2022-11-29T14:18:42.476Z,22.60
2022-11-29T14:21:09.968Z,25.90
2022-11-29T14:23:37.353Z,23.20
2022-11-29T14:26:04.748Z,20.00
2022-11-29T14:28:32.626Z,24.10
2022-11-29T14:31:00.294Z,30.30
2022-11-29T14:33:27.979Z,31.20
2022-11-29T14:35:55.369Z,35.00
2022-11-29T14:38:27.720Z,16.70
2022-11-29T14:40:58.482Z,25.00
2022-11-29T14:43:25.875Z,34.40
2022-11-29T14:45:53.335Z,34.30
2022-11-29T14:48:20.718Z,26.30
2022-11-29T14:50:48.354Z,31.50
2022-11-29T14:53:15.836Z,30.10
2022-11-29T14:55:43.153Z,40.00
2022-11-29T14:58:10.695Z,46.10
2022-11-29T15:00:38.073Z,35.80
2022-11-29T15:03:05.507Z,34.70
2022-11-29T15:05:33.009Z,36.90
2022-11-29T15:08:00.511Z,42.60
2022-11-29T15:10:27.964Z,47.70
2022-11-29T15:12:55.518Z,58.20
2022-11-29T15:15:23.344Z,49.00
2022-11-29T15:17:50.752Z,34.90
2022-11-29T15:20:18.217Z,40.10
2022-11-29T15:22:45.715Z,48.80
2022-11-29T15:25:13.146Z,45.90
2022-11-29T15:27:40.543Z,50.10
2022-11-29T15:30:08.380Z,63.40
2022-11-29T15:32:35.959Z,74.90
2022-11-29T15:35:03.325Z,52.30
2022-11-29T15:37:31.015Z,42.80
2022-11-29T15:39:58.452Z,38.80
2022-11-29T15:42:31.212Z,40.50
2022-11-29T15:44:59.994Z,58.80
2022-11-29T15:47:27.615Z,70.50
2022-11-29T15:49:55.155Z,51.10
2022-11-29T15:52:22.636Z,40.40
2022-11-29T15:54:50.037Z,37.90
2022-11-29T15:57:17.520Z,47.40
2022-11-29T15:59:44.861Z,50.60
2022-11-29T16:02:12.443Z,77.90
2022-11-29T16:04:45.063Z,84.50
2022-11-29T16:07:14.188Z,69.50
2022-11-29T16:09:41.720Z,54.10
2022-11-29T16:12:09.121Z,47.50
2022-11-29T16:14:36.511Z,51.90
2022-11-29T16:17:04.048Z,49.50
2022-11-29T16:19:31.449Z,48.20
2022-11-29T16:21:58.804Z,76.40
2022-11-29T16:24:26.150Z,80.40
2022-11-29T16:26:53.500Z,46.30
2022-11-29T16:29:20.931Z,42.60
2022-11-29T16:31:48.625Z,34.70
2022-11-29T16:34:16.500Z,24.50
2022-11-29T16:36:43.878Z,33.80
2022-11-29T16:39:11.474Z,61.30
2022-11-29T16:41:39.054Z,58.60
2022-11-29T16:44:06.414Z,49.50
2022-11-29T16:46:34.083Z,35.10
2022-11-29T16:49:01.676Z,41.80
2022-11-29T16:51:29.157Z,40.70
2022-11-29T16:53:56.755Z,44.10
2022-11-29T16:56:24.182Z,70.60
2022-11-29T16:59:20.698Z,67.80
2022-11-29T17:01:39.079Z,77.90
2022-11-29T17:04:06.472Z,47.00
2022-11-29T17:06:33.887Z,49.60
2022-11-29T17:09:05.173Z,35.50
2022-11-29T17:11:32.633Z,50.40
2022-11-29T17:14:00.193Z,71.90
2022-11-29T17:16:27.592Z,48.20
2022-11-29T17:18:55.509Z,42.60
2022-11-29T17:21:23.140Z,39.50
2022-11-29T17:23:50.702Z,44.00
2022-11-29T17:26:18.331Z,54.00
2022-11-29T17:28:46.000Z,67.70
2022-11-29T17:31:13.463Z,66.90
2022-11-29T17:33:40.957Z,64.40
2022-11-29T17:36:08.647Z,49.10
2022-11-29T17:38:36.025Z,40.60
2022-11-29T17:41:03.807Z,45.40
2022-11-29T17:43:31.555Z,36.20
2022-11-29T17:45:59.036Z,39.00
2022-11-29T17:48:32.008Z,45.90
2022-11-29T17:51:00.897Z,42.20
2022-11-29T17:53:28.638Z,45.40
2022-11-29T17:55:56.031Z,29.70
2022-11-29T17:58:23.768Z,29.10
2022-11-29T18:00:51.212Z,35.90
2022-11-29T18:03:18.626Z,53.40
2022-11-29T18:05:46.044Z,37.90
2022-11-29T18:08:13.383Z,44.10
2022-11-29T18:10:40.755Z,38.00
2022-11-29T18:13:08.124Z,38.80
2022-11-29T18:15:35.605Z,38.20
2022-11-29T18:18:03.003Z,42.00
2022-11-29T18:20:30.451Z,44.40
2022-11-29T18:22:57.829Z,60.30
2022-11-29T18:25:40.640Z,57.10
2022-11-29T18:28:08.125Z,46.10
2022-11-29T18:30:35.739Z,44.40
2022-11-29T18:33:03.252Z,45.20
2022-11-29T18:35:30.880Z,51.60
2022-11-29T18:38:14.822Z,56.30
2022-11-29T18:40:42.910Z,57.80
2022-11-29T18:43:10.474Z,43.70
2022-11-29T18:45:38.028Z,38.20
2022-11-29T18:48:05.698Z,41.60
2022-11-29T18:50:33.304Z,37.20
2022-11-29T18:53:00.718Z,53.70
2022-11-29T18:55:28.132Z,51.30
2022-11-29T18:57:55.514Z,39.80
2022-11-29T19:00:22.868Z,35.30
2022-11-29T19:02:50.557Z,23.80
2022-11-29T19:05:18.183Z,45.10
2022-11-29T19:07:45.689Z,45.60
2022-11-29T19:10:13.250Z,85.50
2022-11-29T19:12:41.047Z,50.80
2022-11-29T19:15:08.430Z,49.90
2022-11-29T19:17:41.664Z,40.60
2022-11-29T19:20:10.428Z,29.30
2022-11-29T19:22:38.287Z,26.30
2022-11-29T19:25:05.716Z,30.40
2022-11-29T19:27:33.449Z,55.90
2022-11-29T19:30:00.820Z,53.40
2022-11-29T19:32:28.186Z,37.70
2022-11-29T19:34:55.574Z,43.00
2022-11-29T19:37:22.968Z,44.90
2022-11-29T19:39:50.714Z,42.10
2022-11-29T19:42:18.334Z,60.80
2022-11-29T19:45:15.300Z,41.20
2022-11-29T19:47:33.204Z,36.50
2022-11-29T19:50:02.550Z,27.00
2022-11-29T19:52:31.553Z,55.50
2022-11-29T19:54:59.218Z,46.80
2022-11-29T19:57:26.567Z,48.00
2022-11-29T19:59:53.968Z,51.60
2022-11-29T20:02:21.478Z,37.70
2022-11-29T20:04:49.001Z,41.50
2022-11-29T20:07:17.047Z,33.20
2022-11-29T20:09:45.275Z,49.40
2022-11-29T20:12:13.168Z,61.20
2022-11-29T20:14:40.561Z,47.30
2022-11-29T20:17:08.312Z,41.40
2022-11-29T20:19:35.801Z,43.50
2022-11-29T20:22:03.495Z,45.00
2022-11-29T20:24:36.640Z,60.60
2022-11-29T20:27:06.882Z,65.30
2022-11-29T20:29:34.575Z,57.70
2022-11-29T20:32:01.977Z,40.80
2022-11-29T20:34:29.866Z,42.60
2022-11-29T20:36:57.314Z,49.10
2022-11-29T20:39:25.748Z,36.20
2022-11-29T20:41:53.125Z,61.50
2022-11-29T20:44:20.540Z,59.90
2022-11-29T20:46:48.176Z,50.20
2022-11-29T20:49:15.599Z,40.70
2022-11-29T20:51:43.019Z,42.20
2022-11-29T20:54:10.829Z,28.50
2022-11-29T20:56:38.313Z,43.70
2022-11-29T20:59:05.718Z,46.00
2022-11-29T21:01:33.145Z,43.70
2022-11-29T21:04:00.598Z,40.00
2022-11-29T21:06:28.040Z,35.60
2022-11-29T21:08:55.406Z,28.90
2022-11-29T21:11:22.813Z,44.40
2022-11-29T21:13:50.246Z,59.00
2022-11-29T21:16:17.645Z,47.50
2022-11-29T21:18:45.137Z,45.00
2022-11-29T21:21:12.528Z,33.10
2022-11-29T21:23:40.193Z,38.80
2022-11-29T21:26:07.822Z,47.60
2022-11-29T21:28:35.678Z,48.70
2022-11-29T21:31:04.183Z,47.50
2022-11-29T21:33:33.532Z,41.60
2022-11-29T21:36:00.913Z,45.00
2022-11-29T21:38:28.280Z,41.00
2022-11-29T21:40:55.651Z,39.20
2022-11-29T21:43:43.677Z,49.20
2022-11-29T21:46:10.447Z,49.50
2022-11-29T21:48:38.012Z,51.80
2022-11-29T21:51:05.518Z,57.50
2022-11-29T21:53:33.015Z,66.30
2022-11-29T21:56:00.396Z,53.50
2022-11-29T21:58:27.797Z,26.30
2022-11-29T22:00:55.160Z,33.70
2022-11-29T22:03:22.564Z,41.20
2022-11-29T22:05:49.993Z,59.40
2022-11-29T22:08:17.395Z,49.00
2022-11-29T22:10:44.801Z,42.60
2022-11-29T22:13:12.495Z,34.70
2022-11-29T22:15:40.066Z,41.90
2022-11-29T22:18:07.462Z,35.50
2022-11-29T22:20:35.016Z,33.80
2022-11-29T22:23:02.523Z,37.70
2022-11-29T22:25:30.064Z,38.80
2022-11-29T22:27:57.602Z,45.40
2022-11-29T22:30:25.536Z,32.30
2022-11-29T22:32:53.064Z,24.70
2022-11-29T22:35:20.679Z,32.50
2022-11-29T22:37:48.314Z,46.20
2022-11-29T22:40:15.754Z,49.50
2022-11-29T22:42:43.318Z,30.80
2022-11-29T22:45:10.834Z,35.10
2022-11-29T22:47:38.220Z,32.90
2022-11-29T22:50:05.880Z,31.30
2022-11-29T22:52:33.549Z,29.80
2022-11-29T22:55:04.736Z,40.10
2022-11-29T22:57:32.742Z,61.70
2022-11-29T23:00:00.120Z,48.50
2022-11-29T23:02:27.655Z,43.10
2022-11-29T23:04:55.158Z,34.30
2022-11-29T23:07:22.549Z,30.20
2022-11-29T23:09:50.236Z,36.80
2022-11-29T23:12:17.864Z,39.10
2022-11-29T23:14:45.520Z,56.10
2022-11-29T23:17:13.387Z,36.80
2022-11-29T23:19:41.093Z,22.20
2022-11-29T23:22:08.617Z,14.90
2022-11-29T23:24:36.011Z,42.00
2022-11-29T23:27:03.352Z,37.50
2022-11-29T23:29:30.713Z,38.20
2022-11-29T23:31:58.118Z,20.90
2022-11-29T23:34:25.509Z,25.30
2022-11-29T23:36:53.371Z,32.90
2022-11-29T23:39:20.904Z,31.80
2022-11-29T23:41:48.313Z,42.00
2022-11-29T23:44:15.913Z,39.50
2022-11-29T23:46:43.429Z,28.30
2022-11-29T23:49:11.036Z,25.90
2022-11-29T23:51:38.365Z,29.30
2022-11-29T23:54:05.765Z,29.20
2022-11-29T23:56:33.438Z,36.10
2022-11-29T23:59:00.899Z,38.00
